sensor_id;sensor_type;location;lat;lon;timestamp;temperature;humidity
40636;DHT22;26642;55.766;37.828;2024-03-08T00:00:59;11.30;66.20
40636;DHT22;26642;55.766;37.828;2024-03-08T00:03:25;11.30;66.30
40636;DHT22;26642;55.766;37.828;2024-03-08T00:05:51;11.30;66.20
40636;DHT22;26642;55.766;37.828;2024-03-08T00:08:17;11.30;66.00
40636;DHT22;26642;55.766;37.828;2024-03-08T00:10:43;11.30;66.10
40636;DHT22;26642;55.766;37.828;2024-03-08T00:13:09;11.30;66.00
40636;DHT22;26642;55.766;37.828;2024-03-08T00:15:35;11.30;66.10
40636;DHT22;26642;55.766;37.828;2024-03-08T00:18:01;11.30;66.10
40636;DHT22;26642;55.766;37.828;2024-03-08T00:20:27;11.30;66.20
40636;DHT22;26642;55.766;37.828;2024-03-08T00:22:53;11.20;66.00
40636;DHT22;26642;55.766;37.828;2024-03-08T00:25:19;11.20;66.00
40636;DHT22;26642;55.766;37.828;2024-03-08T00:27:45;11.20;66.20
40636;DHT22;26642;55.766;37.828;2024-03-08T00:30:15;11.20;66.10
40636;DHT22;26642;55.766;37.828;2024-03-08T00:32:41;11.20;65.90
40636;DHT22;26642;55.766;37.828;2024-03-08T00:35:07;11.20;65.90
40636;DHT22;26642;55.766;37.828;2024-03-08T00:37:33;11.20;66.00
40636;DHT22;26642;55.766;37.828;2024-03-08T00:40:02;11.20;65.70
40636;DHT22;26642;55.766;37.828;2024-03-08T00:42:28;11.20;65.80
40636;DHT22;26642;55.766;37.828;2024-03-08T00:44:54;11.20;65.70
40636;DHT22;26642;55.766;37.828;2024-03-08T00:47:20;11.10;65.60
40636;DHT22;26642;55.766;37.828;2024-03-08T00:49:46;11.10;65.60
40636;DHT22;26642;55.766;37.828;2024-03-08T00:52:12;11.10;65.70
40636;DHT22;26642;55.766;37.828;2024-03-08T00:54:38;11.10;65.50
40636;DHT22;26642;55.766;37.828;2024-03-08T00:57:04;11.10;65.70
40636;DHT22;26642;55.766;37.828;2024-03-08T00:59:32;11.10;65.60
40636;DHT22;26642;55.766;37.828;2024-03-08T01:01:59;11.10;65.50
40636;DHT22;26642;55.766;37.828;2024-03-08T01:04:26;11.10;65.60
40636;DHT22;26642;55.766;37.828;2024-03-08T01:06:55;11.00;65.50
40636;DHT22;26642;55.766;37.828;2024-03-08T01:09:25;11.10;65.70
40636;DHT22;26642;55.766;37.828;2024-03-08T01:11:53;11.00;65.50
40636;DHT22;26642;55.766;37.828;2024-03-08T01:14:20;11.00;65.50
40636;DHT22;26642;55.766;37.828;2024-03-08T01:16:49;11.00;65.50
40636;DHT22;26642;55.766;37.828;2024-03-08T01:19:16;11.00;65.40
40636;DHT22;26642;55.766;37.828;2024-03-08T01:21:42;11.00;65.50
40636;DHT22;26642;55.766;37.828;2024-03-08T01:24:08;11.00;65.30
40636;DHT22;26642;55.766;37.828;2024-03-08T01:26:34;11.00;65.20
40636;DHT22;26642;55.766;37.828;2024-03-08T01:29:01;11.00;65.10
40636;DHT22;26642;55.766;37.828;2024-03-08T01:31:32;11.00;65.20
40636;DHT22;26642;55.766;37.828;2024-03-08T01:33:58;11.00;65.00
40636;DHT22;26642;55.766;37.828;2024-03-08T01:36:24;11.00;65.10
40636;DHT22;26642;55.766;37.828;2024-03-08T01:38:51;10.90;65.30
40636;DHT22;26642;55.766;37.828;2024-03-08T01:41:17;10.90;65.10
40636;DHT22;26642;55.766;37.828;2024-03-08T01:43:44;10.90;65.20
40636;DHT22;26642;55.766;37.828;2024-03-08T01:46:17;10.90;65.10
40636;DHT22;26642;55.766;37.828;2024-03-08T01:48:44;10.90;65.00
40636;DHT22;26642;55.766;37.828;2024-03-08T01:51:11;10.90;64.90
40636;DHT22;26642;55.766;37.828;2024-03-08T01:53:37;10.90;64.70
40636;DHT22;26642;55.766;37.828;2024-03-08T01:56:05;10.90;64.70
40636;DHT22;26642;55.766;37.828;2024-03-08T01:58:32;10.90;64.90
40636;DHT22;26642;55.766;37.828;2024-03-08T02:00:59;10.90;64.60
40636;DHT22;26642;55.766;37.828;2024-03-08T02:03:26;10.90;64.70
40636;DHT22;26642;55.766;37.828;2024-03-08T02:05:52;10.90;64.90
40636;DHT22;26642;55.766;37.828;2024-03-08T02:08:19;10.90;64.60
40636;DHT22;26642;55.766;37.828;2024-03-08T02:10:48;10.90;64.60
40636;DHT22;26642;55.766;37.828;2024-03-08T02:13:15;10.90;64.70
40636;DHT22;26642;55.766;37.828;2024-03-08T02:15:55;10.90;64.60
40636;DHT22;26642;55.766;37.828;2024-03-08T02:18:23;10.90;64.80
40636;DHT22;26642;55.766;37.828;2024-03-08T02:20:53;10.90;64.70
40636;DHT22;26642;55.766;37.828;2024-03-08T02:23:19;10.80;64.60
40636;DHT22;26642;55.766;37.828;2024-03-08T02:25:46;10.80;65.30
40636;DHT22;26642;55.766;37.828;2024-03-08T02:28:13;10.80;64.60
40636;DHT22;26642;55.766;37.828;2024-03-08T02:30:40;10.90;64.50
40636;DHT22;26642;55.766;37.828;2024-03-08T02:33:06;10.90;64.70
40636;DHT22;26642;55.766;37.828;2024-03-08T02:35:33;10.80;64.60
40636;DHT22;26642;55.766;37.828;2024-03-08T02:37:59;10.80;64.80
40636;DHT22;26642;55.766;37.828;2024-03-08T02:40:26;10.80;64.70
40636;DHT22;26642;55.766;37.828;2024-03-08T02:42:52;10.80;64.80
40636;DHT22;26642;55.766;37.828;2024-03-08T02:45:18;10.80;65.00
40636;DHT22;26642;55.766;37.828;2024-03-08T02:47:44;10.80;64.70
40636;DHT22;26642;55.766;37.828;2024-03-08T02:50:11;10.80;64.70
40636;DHT22;26642;55.766;37.828;2024-03-08T02:52:37;10.80;64.90
40636;DHT22;26642;55.766;37.828;2024-03-08T02:55:03;10.70;64.90
40636;DHT22;26642;55.766;37.828;2024-03-08T02:57:32;10.80;64.90
40636;DHT22;26642;55.766;37.828;2024-03-08T02:59:58;10.70;64.80
40636;DHT22;26642;55.766;37.828;2024-03-08T03:02:25;10.80;65.10
40636;DHT22;26642;55.766;37.828;2024-03-08T03:04:52;10.70;65.00
40636;DHT22;26642;55.766;37.828;2024-03-08T03:07:19;10.80;65.10
40636;DHT22;26642;55.766;37.828;2024-03-08T03:09:45;10.70;65.00
40636;DHT22;26642;55.766;37.828;2024-03-08T03:12:11;10.70;65.00
40636;DHT22;26642;55.766;37.828;2024-03-08T03:14:37;10.70;64.80
40636;DHT22;26642;55.766;37.828;2024-03-08T03:17:05;10.80;65.00
40636;DHT22;26642;55.766;37.828;2024-03-08T03:19:31;10.80;64.90
40636;DHT22;26642;55.766;37.828;2024-03-08T03:21:58;10.70;64.80
40636;DHT22;26642;55.766;37.828;2024-03-08T03:24:24;10.70;64.80
40636;DHT22;26642;55.766;37.828;2024-03-08T03:26:50;10.70;64.60
40636;DHT22;26642;55.766;37.828;2024-03-08T03:29:17;10.70;64.40
40636;DHT22;26642;55.766;37.828;2024-03-08T03:31:44;10.70;64.40
40636;DHT22;26642;55.766;37.828;2024-03-08T03:34:13;10.70;64.20
40636;DHT22;26642;55.766;37.828;2024-03-08T03:36:39;10.70;64.30
40636;DHT22;26642;55.766;37.828;2024-03-08T03:39:08;10.70;64.30
40636;DHT22;26642;55.766;37.828;2024-03-08T03:41:45;10.70;64.10
40636;DHT22;26642;55.766;37.828;2024-03-08T03:44:12;10.70;64.10
40636;DHT22;26642;55.766;37.828;2024-03-08T03:46:41;10.70;64.20
40636;DHT22;26642;55.766;37.828;2024-03-08T03:49:09;10.70;64.30
40636;DHT22;26642;55.766;37.828;2024-03-08T03:51:35;10.70;64.40
40636;DHT22;26642;55.766;37.828;2024-03-08T03:54:02;10.60;64.40
40636;DHT22;26642;55.766;37.828;2024-03-08T03:56:29;10.70;64.40
40636;DHT22;26642;55.766;37.828;2024-03-08T03:58:56;10.60;64.30
40636;DHT22;26642;55.766;37.828;2024-03-08T04:01:22;10.60;64.40
40636;DHT22;26642;55.766;37.828;2024-03-08T04:03:48;10.70;64.30
40636;DHT22;26642;55.766;37.828;2024-03-08T04:06:14;10.60;64.10
40636;DHT22;26642;55.766;37.828;2024-03-08T04:08:40;10.70;64.10
40636;DHT22;26642;55.766;37.828;2024-03-08T04:11:09;10.60;63.90
40636;DHT22;26642;55.766;37.828;2024-03-08T04:13:37;10.70;64.00
40636;DHT22;26642;55.766;37.828;2024-03-08T04:16:03;10.60;64.00
40636;DHT22;26642;55.766;37.828;2024-03-08T04:18:34;10.70;64.40
40636;DHT22;26642;55.766;37.828;2024-03-08T04:21:02;10.60;64.00
40636;DHT22;26642;55.766;37.828;2024-03-08T04:23:28;10.60;64.20
40636;DHT22;26642;55.766;37.828;2024-03-08T04:25:54;10.60;63.90
40636;DHT22;26642;55.766;37.828;2024-03-08T04:28:20;10.70;64.10
40636;DHT22;26642;55.766;37.828;2024-03-08T04:30:46;10.60;64.10
40636;DHT22;26642;55.766;37.828;2024-03-08T04:33:12;10.60;64.00
40636;DHT22;26642;55.766;37.828;2024-03-08T04:35:40;10.60;63.90
40636;DHT22;26642;55.766;37.828;2024-03-08T04:38:06;10.60;64.00
40636;DHT22;26642;55.766;37.828;2024-03-08T04:40:33;10.70;64.00
40636;DHT22;26642;55.766;37.828;2024-03-08T04:45:45;10.60;64.00
40636;DHT22;26642;55.766;37.828;2024-03-08T04:48:11;10.60;64.00
40636;DHT22;26642;55.766;37.828;2024-03-08T04:50:37;10.60;64.00
40636;DHT22;26642;55.766;37.828;2024-03-08T04:53:04;10.60;64.00
40636;DHT22;26642;55.766;37.828;2024-03-08T04:55:34;10.60;63.80
40636;DHT22;26642;55.766;37.828;2024-03-08T04:58:00;10.60;63.80
40636;DHT22;26642;55.766;37.828;2024-03-08T05:00:26;10.60;63.70
40636;DHT22;26642;55.766;37.828;2024-03-08T05:02:52;10.60;63.70
40636;DHT22;26642;55.766;37.828;2024-03-08T05:05:19;10.60;63.70
40636;DHT22;26642;55.766;37.828;2024-03-08T05:07:45;10.60;63.70
40636;DHT22;26642;55.766;37.828;2024-03-08T05:10:11;10.60;63.80
40636;DHT22;26642;55.766;37.828;2024-03-08T05:12:37;10.60;63.70
40636;DHT22;26642;55.766;37.828;2024-03-08T05:15:06;10.60;63.70
40636;DHT22;26642;55.766;37.828;2024-03-08T05:17:33;10.60;63.70
40636;DHT22;26642;55.766;37.828;2024-03-08T05:19:59;10.60;63.80
40636;DHT22;26642;55.766;37.828;2024-03-08T05:22:25;10.60;63.90
40636;DHT22;26642;55.766;37.828;2024-03-08T05:24:51;10.60;63.80
40636;DHT22;26642;55.766;37.828;2024-03-08T05:27:17;10.60;63.80
40636;DHT22;26642;55.766;37.828;2024-03-08T05:29:43;10.60;63.90
40636;DHT22;26642;55.766;37.828;2024-03-08T05:32:09;10.60;63.80
40636;DHT22;26642;55.766;37.828;2024-03-08T05:34:36;10.60;63.90
40636;DHT22;26642;55.766;37.828;2024-03-08T05:37:02;10.60;63.90
40636;DHT22;26642;55.766;37.828;2024-03-08T05:39:28;10.60;63.80
40636;DHT22;26642;55.766;37.828;2024-03-08T05:41:55;10.60;63.70
40636;DHT22;26642;55.766;37.828;2024-03-08T05:44:22;10.60;64.00
40636;DHT22;26642;55.766;37.828;2024-03-08T05:46:48;10.60;64.00
40636;DHT22;26642;55.766;37.828;2024-03-08T05:49:14;10.60;64.20
40636;DHT22;26642;55.766;37.828;2024-03-08T05:51:40;10.70;67.00
40636;DHT22;26642;55.766;37.828;2024-03-08T05:54:08;10.70;68.40
40636;DHT22;26642;55.766;37.828;2024-03-08T05:56:37;10.90;69.50
40636;DHT22;26642;55.766;37.828;2024-03-08T05:59:03;11.00;70.40
40636;DHT22;26642;55.766;37.828;2024-03-08T06:01:30;11.10;71.10
40636;DHT22;26642;55.766;37.828;2024-03-08T06:04:02;11.20;72.00
40636;DHT22;26642;55.766;37.828;2024-03-08T06:06:29;11.30;73.30
40636;DHT22;26642;55.766;37.828;2024-03-08T06:08:55;11.40;74.50
40636;DHT22;26642;55.766;37.828;2024-03-08T06:11:25;11.60;74.20
40636;DHT22;26642;55.766;37.828;2024-03-08T06:13:52;11.60;74.10
40636;DHT22;26642;55.766;37.828;2024-03-08T06:16:26;11.70;72.60
40636;DHT22;26642;55.766;37.828;2024-03-08T06:18:56;11.80;70.70
40636;DHT22;26642;55.766;37.828;2024-03-08T06:21:23;11.80;69.40
40636;DHT22;26642;55.766;37.828;2024-03-08T06:23:56;11.80;68.60
40636;DHT22;26642;55.766;37.828;2024-03-08T06:26:24;11.90;67.70
40636;DHT22;26642;55.766;37.828;2024-03-08T06:28:51;11.80;66.80
40636;DHT22;26642;55.766;37.828;2024-03-08T06:31:17;11.90;66.20
40636;DHT22;26642;55.766;37.828;2024-03-08T06:33:43;11.90;65.70
40636;DHT22;26642;55.766;37.828;2024-03-08T06:36:09;11.80;65.60
40636;DHT22;26642;55.766;37.828;2024-03-08T06:38:40;11.90;65.50
40636;DHT22;26642;55.766;37.828;2024-03-08T06:41:11;11.90;65.70
40636;DHT22;26642;55.766;37.828;2024-03-08T06:43:44;11.90;66.00
40636;DHT22;26642;55.766;37.828;2024-03-08T06:46:11;11.90;65.80
40636;DHT22;26642;55.766;37.828;2024-03-08T06:48:39;11.90;65.70
40636;DHT22;26642;55.766;37.828;2024-03-08T06:51:06;11.90;65.70
40636;DHT22;26642;55.766;37.828;2024-03-08T06:53:32;11.90;65.60
40636;DHT22;26642;55.766;37.828;2024-03-08T06:56:01;11.90;65.80
40636;DHT22;26642;55.766;37.828;2024-03-08T06:58:27;11.90;66.00
40636;DHT22;26642;55.766;37.828;2024-03-08T07:00:54;11.90;66.20
40636;DHT22;26642;55.766;37.828;2024-03-08T07:03:24;11.90;66.10
40636;DHT22;26642;55.766;37.828;2024-03-08T07:05:50;11.90;66.30
40636;DHT22;26642;55.766;37.828;2024-03-08T07:08:16;11.90;66.20
40636;DHT22;26642;55.766;37.828;2024-03-08T07:10:42;11.90;66.10
40636;DHT22;26642;55.766;37.828;2024-03-08T07:13:10;11.90;66.30
40636;DHT22;26642;55.766;37.828;2024-03-08T07:15:36;11.90;66.60
40636;DHT22;26642;55.766;37.828;2024-03-08T07:18:03;11.90;66.40
40636;DHT22;26642;55.766;37.828;2024-03-08T07:20:29;11.90;66.40
40636;DHT22;26642;55.766;37.828;2024-03-08T07:22:55;11.90;66.40
40636;DHT22;26642;55.766;37.828;2024-03-08T07:25:21;11.90;66.40
40636;DHT22;26642;55.766;37.828;2024-03-08T07:27:55;11.90;66.20
40636;DHT22;26642;55.766;37.828;2024-03-08T07:34:17;11.90;65.90
40636;DHT22;26642;55.766;37.828;2024-03-08T07:37:10;11.90;65.80
40636;DHT22;26642;55.766;37.828;2024-03-08T07:39:39;11.90;65.80
40636;DHT22;26642;55.766;37.828;2024-03-08T07:42:06;11.90;65.80
40636;DHT22;26642;55.766;37.828;2024-03-08T07:44:32;11.90;66.00
40636;DHT22;26642;55.766;37.828;2024-03-08T07:46:59;11.90;66.30
40636;DHT22;26642;55.766;37.828;2024-03-08T07:49:25;11.90;66.30
40636;DHT22;26642;55.766;37.828;2024-03-08T07:51:51;11.90;66.40
40636;DHT22;26642;55.766;37.828;2024-03-08T07:54:17;12.00;66.90
40636;DHT22;26642;55.766;37.828;2024-03-08T07:56:43;12.00;66.00
40636;DHT22;26642;55.766;37.828;2024-03-08T07:59:09;12.00;65.90
40636;DHT22;26642;55.766;37.828;2024-03-08T08:01:37;12.00;65.80
40636;DHT22;26642;55.766;37.828;2024-03-08T08:04:03;12.00;65.70
40636;DHT22;26642;55.766;37.828;2024-03-08T08:06:30;12.00;65.70
40636;DHT22;26642;55.766;37.828;2024-03-08T08:09:00;12.00;65.50
40636;DHT22;26642;55.766;37.828;2024-03-08T08:11:29;12.00;65.50
40636;DHT22;26642;55.766;37.828;2024-03-08T08:13:56;12.00;65.40
40636;DHT22;26642;55.766;37.828;2024-03-08T08:16:25;12.00;65.20
40636;DHT22;26642;55.766;37.828;2024-03-08T08:18:52;12.10;65.60
40636;DHT22;26642;55.766;37.828;2024-03-08T08:21:19;12.10;65.80
40636;DHT22;26642;55.766;37.828;2024-03-08T08:23:47;12.10;65.60
40636;DHT22;26642;55.766;37.828;2024-03-08T08:26:15;12.10;65.40
40636;DHT22;26642;55.766;37.828;2024-03-08T08:28:45;12.10;65.20
40636;DHT22;26642;55.766;37.828;2024-03-08T08:31:12;12.10;65.10
40636;DHT22;26642;55.766;37.828;2024-03-08T08:33:38;12.10;65.00
40636;DHT22;26642;55.766;37.828;2024-03-08T08:36:06;12.20;65.00
40636;DHT22;26642;55.766;37.828;2024-03-08T08:38:32;12.20;65.20
40636;DHT22;26642;55.766;37.828;2024-03-08T08:40:58;12.20;65.00
40636;DHT22;26642;55.766;37.828;2024-03-08T08:43:24;12.20;64.80
40636;DHT22;26642;55.766;37.828;2024-03-08T08:45:51;12.20;64.80
40636;DHT22;26642;55.766;37.828;2024-03-08T08:48:20;12.20;64.90
40636;DHT22;26642;55.766;37.828;2024-03-08T08:50:46;12.20;65.00
40636;DHT22;26642;55.766;37.828;2024-03-08T08:53:12;12.30;65.30
40636;DHT22;26642;55.766;37.828;2024-03-08T08:55:40;12.30;65.30
40636;DHT22;26642;55.766;37.828;2024-03-08T08:58:06;12.30;65.10
40636;DHT22;26642;55.766;37.828;2024-03-08T09:00:33;12.30;65.00
40636;DHT22;26642;55.766;37.828;2024-03-08T09:03:00;12.30;65.00
40636;DHT22;26642;55.766;37.828;2024-03-08T09:05:28;12.30;64.90
40636;DHT22;26642;55.766;37.828;2024-03-08T09:07:54;12.30;64.70
40636;DHT22;26642;55.766;37.828;2024-03-08T09:10:20;12.30;64.50
40636;DHT22;26642;55.766;37.828;2024-03-08T09:12:47;12.30;64.60
40636;DHT22;26642;55.766;37.828;2024-03-08T09:15:13;12.30;64.60
40636;DHT22;26642;55.766;37.828;2024-03-08T09:17:40;12.30;64.50
40636;DHT22;26642;55.766;37.828;2024-03-08T09:20:09;12.30;64.40
40636;DHT22;26642;55.766;37.828;2024-03-08T09:22:44;12.40;64.80
40636;DHT22;26642;55.766;37.828;2024-03-08T09:25:10;12.40;65.00
40636;DHT22;26642;55.766;37.828;2024-03-08T09:27:36;12.40;65.20
40636;DHT22;26642;55.766;37.828;2024-03-08T09:30:03;12.30;65.20
40636;DHT22;26642;55.766;37.828;2024-03-08T09:32:32;12.30;65.00
40636;DHT22;26642;55.766;37.828;2024-03-08T09:34:58;12.30;65.00
40636;DHT22;26642;55.766;37.828;2024-03-08T09:37:24;12.30;64.90
40636;DHT22;26642;55.766;37.828;2024-03-08T09:39:50;12.30;64.90
40636;DHT22;26642;55.766;37.828;2024-03-08T09:42:16;12.30;64.90
40636;DHT22;26642;55.766;37.828;2024-03-08T09:44:46;12.30;64.90
40636;DHT22;26642;55.766;37.828;2024-03-08T09:47:16;12.30;64.90
40636;DHT22;26642;55.766;37.828;2024-03-08T09:49:43;12.30;64.80
40636;DHT22;26642;55.766;37.828;2024-03-08T09:52:10;12.30;65.40
40636;DHT22;26642;55.766;37.828;2024-03-08T09:54:38;12.30;65.70
40636;DHT22;26642;55.766;37.828;2024-03-08T09:57:06;12.40;66.10
40636;DHT22;26642;55.766;37.828;2024-03-08T09:59:34;12.40;66.30
40636;DHT22;26642;55.766;37.828;2024-03-08T10:02:03;12.40;66.50
40636;DHT22;26642;55.766;37.828;2024-03-08T10:04:31;12.40;66.70
40636;DHT22;26642;55.766;37.828;2024-03-08T10:07:01;12.40;66.90
40636;DHT22;26642;55.766;37.828;2024-03-08T10:09:27;12.40;67.10
40636;DHT22;26642;55.766;37.828;2024-03-08T10:11:56;12.40;67.10
40636;DHT22;26642;55.766;37.828;2024-03-08T10:14:24;12.40;67.00
40636;DHT22;26642;55.766;37.828;2024-03-08T10:16:55;12.40;66.80
40636;DHT22;26642;55.766;37.828;2024-03-08T10:19:26;12.40;66.80
40636;DHT22;26642;55.766;37.828;2024-03-08T10:21:58;12.40;66.80
40636;DHT22;26642;55.766;37.828;2024-03-08T10:24:26;12.40;66.50
40636;DHT22;26642;55.766;37.828;2024-03-08T10:26:53;12.50;66.50
40636;DHT22;26642;55.766;37.828;2024-03-08T10:29:25;12.50;67.10
40636;DHT22;26642;55.766;37.828;2024-03-08T10:32:11;12.50;67.40
40636;DHT22;26642;55.766;37.828;2024-03-08T10:34:38;12.50;67.40
40636;DHT22;26642;55.766;37.828;2024-03-08T10:37:08;12.50;67.60
40636;DHT22;26642;55.766;37.828;2024-03-08T10:39:40;12.50;67.70
40636;DHT22;26642;55.766;37.828;2024-03-08T10:42:16;12.50;68.10
40636;DHT22;26642;55.766;37.828;2024-03-08T10:44:53;12.50;68.60
40636;DHT22;26642;55.766;37.828;2024-03-08T10:47:31;12.50;68.70
40636;DHT22;26642;55.766;37.828;2024-03-08T10:50:20;12.60;69.30
40636;DHT22;26642;55.766;37.828;2024-03-08T10:52:50;12.60;69.10
40636;DHT22;26642;55.766;37.828;2024-03-08T10:55:18;12.60;69.00
40636;DHT22;26642;55.766;37.828;2024-03-08T10:57:54;12.60;69.10
40636;DHT22;26642;55.766;37.828;2024-03-08T11:00:22;12.60;69.20
40636;DHT22;26642;55.766;37.828;2024-03-08T11:02:57;12.60;69.20
40636;DHT22;26642;55.766;37.828;2024-03-08T11:05:40;12.70;69.40
40636;DHT22;26642;55.766;37.828;2024-03-08T11:08:20;12.70;69.40
40636;DHT22;26642;55.766;37.828;2024-03-08T11:10:52;12.70;69.70
40636;DHT22;26642;55.766;37.828;2024-03-08T11:13:43;12.70;69.80
40636;DHT22;26642;55.766;37.828;2024-03-08T11:16:10;12.70;69.40
40636;DHT22;26642;55.766;37.828;2024-03-08T11:18:58;12.80;69.00
40636;DHT22;26642;55.766;37.828;2024-03-08T11:21:31;12.80;68.70
40636;DHT22;26642;55.766;37.828;2024-03-08T11:24:06;12.80;68.90
40636;DHT22;26642;55.766;37.828;2024-03-08T11:26:33;12.80;69.10
40636;DHT22;26642;55.766;37.828;2024-03-08T11:32:14;12.80;69.80
40636;DHT22;26642;55.766;37.828;2024-03-08T11:34:46;12.80;69.90
40636;DHT22;26642;55.766;37.828;2024-03-08T11:37:14;12.80;70.10
40636;DHT22;26642;55.766;37.828;2024-03-08T11:39:46;12.90;70.00
40636;DHT22;26642;55.766;37.828;2024-03-08T11:42:14;12.90;70.10
40636;DHT22;26642;55.766;37.828;2024-03-08T11:47:11;13.00;69.30
40636;DHT22;26642;55.766;37.828;2024-03-08T11:49:41;13.00;69.80
40636;DHT22;26642;55.766;37.828;2024-03-08T11:52:17;13.00;69.20
40636;DHT22;26642;55.766;37.828;2024-03-08T11:54:51;13.00;70.10
40636;DHT22;26642;55.766;37.828;2024-03-08T11:57:23;13.00;69.90
40636;DHT22;26642;55.766;37.828;2024-03-08T11:59:55;13.00;69.90
40636;DHT22;26642;55.766;37.828;2024-03-08T12:02:22;13.00;69.20
40636;DHT22;26642;55.766;37.828;2024-03-08T12:04:56;13.10;69.10
40636;DHT22;26642;55.766;37.828;2024-03-08T12:07:23;13.10;68.80
40636;DHT22;26642;55.766;37.828;2024-03-08T12:10:16;13.10;68.50
40636;DHT22;26642;55.766;37.828;2024-03-08T12:12:46;13.10;68.30
40636;DHT22;26642;55.766;37.828;2024-03-08T12:15:15;13.00;68.00
40636;DHT22;26642;55.766;37.828;2024-03-08T12:17:41;13.10;67.80
40636;DHT22;26642;55.766;37.828;2024-03-08T12:20:22;13.00;67.80
40636;DHT22;26642;55.766;37.828;2024-03-08T12:22:50;13.10;67.70
40636;DHT22;26642;55.766;37.828;2024-03-08T12:25:18;13.10;67.80
40636;DHT22;26642;55.766;37.828;2024-03-08T12:27:44;13.00;67.80
40636;DHT22;26642;55.766;37.828;2024-03-08T12:30:18;13.10;68.00
40636;DHT22;26642;55.766;37.828;2024-03-08T12:32:53;13.10;68.00
40636;DHT22;26642;55.766;37.828;2024-03-08T12:35:21;13.00;68.40
40636;DHT22;26642;55.766;37.828;2024-03-08T12:37:55;13.00;68.60
40636;DHT22;26642;55.766;37.828;2024-03-08T12:40:32;13.00;68.70
40636;DHT22;26642;55.766;37.828;2024-03-08T12:43:01;13.00;68.80
40636;DHT22;26642;55.766;37.828;2024-03-08T12:45:28;13.10;69.10
40636;DHT22;26642;55.766;37.828;2024-03-08T12:47:55;13.00;69.00
40636;DHT22;26642;55.766;37.828;2024-03-08T12:50:24;13.00;69.10
40636;DHT22;26642;55.766;37.828;2024-03-08T12:52:50;13.00;69.20
40636;DHT22;26642;55.766;37.828;2024-03-08T12:55:18;13.10;69.30
40636;DHT22;26642;55.766;37.828;2024-03-08T12:57:45;13.10;69.40
40636;DHT22;26642;55.766;37.828;2024-03-08T13:00:13;13.00;69.30
40636;DHT22;26642;55.766;37.828;2024-03-08T13:02:47;13.00;69.70
40636;DHT22;26642;55.766;37.828;2024-03-08T13:05:14;13.00;70.00
40636;DHT22;26642;55.766;37.828;2024-03-08T13:07:43;13.00;70.30
40636;DHT22;26642;55.766;37.828;2024-03-08T13:10:15;13.00;70.50
40636;DHT22;26642;55.766;37.828;2024-03-08T13:12:42;13.10;70.60
40636;DHT22;26642;55.766;37.828;2024-03-08T13:15:09;13.00;70.60
40636;DHT22;26642;55.766;37.828;2024-03-08T13:17:41;13.00;70.80
40636;DHT22;26642;55.766;37.828;2024-03-08T13:20:09;13.00;70.80
40636;DHT22;26642;55.766;37.828;2024-03-08T13:22:36;13.00;70.80
40636;DHT22;26642;55.766;37.828;2024-03-08T13:25:02;13.00;70.70
40636;DHT22;26642;55.766;37.828;2024-03-08T13:27:29;13.00;70.80
40636;DHT22;26642;55.766;37.828;2024-03-08T13:29:55;13.00;70.90
40636;DHT22;26642;55.766;37.828;2024-03-08T13:32:21;13.00;70.80
40636;DHT22;26642;55.766;37.828;2024-03-08T13:34:47;13.00;70.60
40636;DHT22;26642;55.766;37.828;2024-03-08T13:37:14;13.00;70.70
40636;DHT22;26642;55.766;37.828;2024-03-08T13:39:42;13.00;71.00
40636;DHT22;26642;55.766;37.828;2024-03-08T13:42:13;13.00;70.90
40636;DHT22;26642;55.766;37.828;2024-03-08T13:44:44;13.00;70.80
40636;DHT22;26642;55.766;37.828;2024-03-08T13:47:13;13.00;71.00
40636;DHT22;26642;55.766;37.828;2024-03-08T13:49:39;13.00;71.10
40636;DHT22;26642;55.766;37.828;2024-03-08T13:52:05;13.00;71.20
40636;DHT22;26642;55.766;37.828;2024-03-08T13:54:34;13.00;71.20
40636;DHT22;26642;55.766;37.828;2024-03-08T13:57:01;13.00;71.40
40636;DHT22;26642;55.766;37.828;2024-03-08T13:59:30;13.00;71.60
40636;DHT22;26642;55.766;37.828;2024-03-08T14:01:59;13.00;71.60
40636;DHT22;26642;55.766;37.828;2024-03-08T14:04:28;13.00;71.90
40636;DHT22;26642;55.766;37.828;2024-03-08T14:06:54;13.00;72.30
40636;DHT22;26642;55.766;37.828;2024-03-08T14:09:25;13.00;72.50
40636;DHT22;26642;55.766;37.828;2024-03-08T14:11:52;13.00;72.60
40636;DHT22;26642;55.766;37.828;2024-03-08T14:14:20;13.00;72.50
40636;DHT22;26642;55.766;37.828;2024-03-08T14:16:49;13.00;72.30
40636;DHT22;26642;55.766;37.828;2024-03-08T14:19:20;13.00;72.00
40636;DHT22;26642;55.766;37.828;2024-03-08T14:21:46;13.00;71.70
40636;DHT22;26642;55.766;37.828;2024-03-08T14:24:15;12.90;71.70
40636;DHT22;26642;55.766;37.828;2024-03-08T14:26:42;13.00;71.50
40636;DHT22;26642;55.766;37.828;2024-03-08T14:29:27;13.00;71.50
40636;DHT22;26642;55.766;37.828;2024-03-08T14:31:55;12.90;71.30
40636;DHT22;26642;55.766;37.828;2024-03-08T14:34:25;12.90;71.00
40636;DHT22;26642;55.766;37.828;2024-03-08T14:36:58;12.90;72.10
40636;DHT22;26642;55.766;37.828;2024-03-08T14:39:24;12.90;72.60
40636;DHT22;26642;55.766;37.828;2024-03-08T14:41:52;12.90;72.70
40636;DHT22;26642;55.766;37.828;2024-03-08T14:44:20;12.90;75.20
40636;DHT22;26642;55.766;37.828;2024-03-08T14:46:46;12.90;77.00
40636;DHT22;26642;55.766;37.828;2024-03-08T14:49:31;13.00;76.80
40636;DHT22;26642;55.766;37.828;2024-03-08T14:51:57;13.00;75.60
40636;DHT22;26642;55.766;37.828;2024-03-08T14:54:24;13.00;74.70
40636;DHT22;26642;55.766;37.828;2024-03-08T14:56:50;12.90;74.30
40636;DHT22;26642;55.766;37.828;2024-03-08T14:59:21;12.90;74.10
40636;DHT22;26642;55.766;37.828;2024-03-08T15:01:47;12.90;73.90
40636;DHT22;26642;55.766;37.828;2024-03-08T15:04:13;12.90;73.90
40636;DHT22;26642;55.766;37.828;2024-03-08T15:06:40;12.90;73.70
40636;DHT22;26642;55.766;37.828;2024-03-08T15:09:08;12.90;73.30
40636;DHT22;26642;55.766;37.828;2024-03-08T15:11:51;12.90;71.60
40636;DHT22;26642;55.766;37.828;2024-03-08T15:14:17;12.80;70.30
40636;DHT22;26642;55.766;37.828;2024-03-08T15:16:56;12.70;69.40
40636;DHT22;26642;55.766;37.828;2024-03-08T15:19:25;12.60;68.30
40636;DHT22;26642;55.766;37.828;2024-03-08T15:21:53;12.60;67.60
40636;DHT22;26642;55.766;37.828;2024-03-08T15:24:22;12.50;66.90
40636;DHT22;26642;55.766;37.828;2024-03-08T15:26:49;12.40;66.40
40636;DHT22;26642;55.766;37.828;2024-03-08T15:29:20;12.30;66.00
40636;DHT22;26642;55.766;37.828;2024-03-08T15:31:52;12.20;65.90
40636;DHT22;26642;55.766;37.828;2024-03-08T15:34:20;12.20;65.80